Terminal Aerodrome Forecast
Issued by NWS

Home | Current Version | Previous Version | Graphics & Text | Print | Product List | Glossary On
Versions: 1 2 3 4 5 6 7 8 9 10 11 12 13 14 15 16 17 18 19 20 21 22 23 24 25 26 27
000
FTUS43 KLOT 082337
TAFORD
TAF
KORD 082337Z 0900/1006 28014G21KT P6SM -SN OVC025
     FM090300 28012G18KT P6SM -SN BKN030
     FM091400 28010KT P6SM SCT015 BKN025
     FM100000 27008KT P6SM SCT025 BKN035=

USA.gov is the U.S. government's official web portal to all federal, state and local government web resources and services.